LIML/LIN METAR and TAF weather

Enter ICAO airport designator
Station Type Date Time Source
LIML METAR 2019/02/16 17:20 UTC NOAA

LIML 161720Z 24002KT 7000 NSC 10/02 Q1029 NOSIG


Station Type Date Time Source
LIML Decoded METAR 2019/02/16 17:20 UTC NOAA

Milano / Linate, Italy (LIML) 45-26N 009-17E 103M
Feb 16, 2019 - 12:20 PM EST / 2019.02.16 1720 UTC
Wind: from the WSW (240 degrees) at 2 MPH (2 KT):0
Visibility: 4 mile(s):0
Temperature: 50 F (10 C)
Dew Point: 35 F (2 C)
Relative Humidity: 57%
Pressure (altimeter): 30.39 in. Hg (1029 hPa)
ob: LIML 161720Z 24002KT 7000 NSC 10/02 Q1029 NOSIG
cycle: 17

Station Type Date Time Source
LIML TAF 2019/02/16 18:22 UTC NOAA

TAF LIML 161700Z 1618/1718 VRB05KT 7000 NSC
BECMG 1621/1624 4000 BR
TEMPO 1702/1708 2000 BCFG
BECMG 1708/1710 7000


Example: see airport list